Time;durP1;ratioP1;P1;durP2;ratioP2;P2;SDS_P1;SDS_P2;PMS_P1;PMS_P2;Temp;Humidity;BMP_temperature;BMP_pressure;BME280_temperature;BME280_humidity;BME280_pressure;Samples;Min_cycle;Max_cycle;Signal;HPM_P1;HPM_P2
2022/08/14 00:01:25;;;;;;;5.07;4.00;;;26.10;1.00;;;;;;5079188;28;20177;-88
2022/08/14 00:03:58;;;;;;;10.37;7.70;;;26.00;1.00;;;;;;5062128;28;20182;-87
2022/08/14 00:06:37;;;;;;;12.93;11.47;;;26.10;1.00;;;;;;5078533;28;20208;-89
2022/08/14 00:09:22;;;;;;;9.43;6.10;;;26.20;1.00;;;;;;5077340;28;20196;-88
2022/08/14 00:11:58;;;;;;;6.77;4.43;;;26.20;1.00;;;;;;5074102;28;20244;-89
2022/08/14 00:14:28;;;;;;;6.60;4.07;;;26.10;1.00;;;;;;5073993;28;20180;-89
2022/08/14 00:17:10;;;;;;;6.97;4.10;;;26.00;1.00;;;;;;5073001;28;20170;-89
2022/08/14 00:19:50;;;;;;;6.93;3.03;;;26.20;1.00;;;;;;5073198;28;20228;-89
2022/08/14 00:22:54;;;;;;;6.50;2.83;;;26.20;1.00;;;;;;5072415;28;20188;-88
2022/08/14 00:25:49;;;;;;;7.47;2.80;;;26.40;1.00;;;;;;5068754;28;20309;-88
2022/08/14 00:28:25;;;;;;;6.47;2.70;;;26.20;1.00;;;;;;5070936;28;20224;-89
2022/08/14 00:31:00;;;;;;;10.73;3.17;;;26.10;1.00;;;;;;5065365;28;20180;-89
2022/08/14 00:34:03;;;;;;;7.00;3.70;;;26.10;1.00;;;;;;5063701;28;20192;-89
2022/08/14 00:36:46;;;;;;;6.13;4.37;;;26.30;1.00;;;;;;5070253;28;20268;-87
2022/08/14 00:39:15;;;;;;;7.60;6.27;;;26.30;1.00;;;;;;5067222;28;20182;-89
2022/08/14 00:41:46;;;;;;;9.80;6.27;;;26.40;1.00;;;;;;5053691;28;20185;-89
2022/08/14 00:44:45;;;;;;;7.27;5.00;;;26.30;1.00;;;;;;5060162;28;20169;-89
2022/08/14 00:47:23;;;;;;;6.30;3.93;;;26.40;1.00;;;;;;5056951;28;20219;-89
2022/08/14 00:49:52;;;;;;;5.73;3.83;;;26.40;1.00;;;;;;5058712;28;20177;-89
2022/08/14 00:52:21;;;;;;;4.57;2.77;;;26.30;1.00;;;;;;5059556;28;20621;-88
2022/08/14 00:55:03;;;;;;;3.60;2.70;;;26.30;1.00;;;;;;5058043;28;20173;-89
2022/08/14 00:57:34;;;;;;;5.38;2.70;;;26.30;1.00;;;;;;5044724;28;20208;-89
2022/08/14 01:00:17;;;;;;;4.00;2.60;;;26.40;1.00;;;;;;5058737;28;20272;-89
2022/08/14 01:03:00;;;;;;;4.33;3.07;;;26.30;1.00;;;;;;5059390;28;20262;-89
2022/08/14 01:06:04;;;;;;;4.40;2.63;;;26.30;1.00;;;;;;5058559;28;20179;-89
2022/08/14 01:09:05;;;;;;;4.10;2.80;;;26.30;1.00;;;;;;5058334;28;20201;-88
2022/08/14 01:11:39;;;;;;;6.27;2.77;;;26.30;1.00;;;;;;5060056;28;20156;-89
2022/08/14 01:14:14;;;;;;;3.93;2.67;;;26.20;1.00;;;;;;5059181;28;20193;-90
2022/08/14 01:17:18;;;;;;;5.63;3.00;;;26.20;1.00;;;;;;5060283;28;20182;-89
2022/08/14 01:22:56;;;;;;;3.40;2.70;;;26.40;1.00;;;;;;5075598;28;20154;-88
2022/08/14 01:25:37;;;;;;;5.17;2.90;;;26.20;1.00;;;;;;5060561;28;20167;-88
2022/08/14 01:28:10;;;;;;;3.97;2.50;;;26.30;1.00;;;;;;5076040;28;20214;-88
2022/08/14 01:30:58;;;;;;;4.73;3.03;;;26.20;1.00;;;;;;5061880;28;20652;-89
2022/08/14 01:33:31;;;;;;;4.67;2.90;;;26.20;1.00;;;;;;5059301;28;20191;-88
2022/08/14 01:36:15;;;;;;;5.57;2.80;;;26.10;1.00;;;;;;5056012;28;20543;-88
2022/08/14 01:39:03;;;;;;;6.80;2.40;;;26.00;1.00;;;;;;5053888;28;20211;-89
2022/08/14 01:41:47;;;;;;;3.07;2.57;;;25.90;1.00;;;;;;5054038;28;20177;-88
2022/08/14 01:44:30;;;;;;;4.53;2.80;;;25.80;1.00;;;;;;5054534;28;20181;-89
2022/08/14 01:47:12;;;;;;;5.27;2.73;;;25.70;1.00;;;;;;5073882;28;20205;-89
2022/08/14 01:49:41;;;;;;;5.33;2.97;;;25.70;1.00;;;;;;5074303;28;20165;-89
2022/08/14 01:52:52;;;;;;;5.27;2.77;;;25.50;1.00;;;;;;5077072;28;20632;-88
2022/08/14 01:55:30;;;;;;;7.23;2.73;;;25.30;1.00;;;;;;5077530;28;20172;-88
2022/08/14 01:58:13;;;;;;;4.53;2.67;;;25.10;1.00;;;;;;5077818;28;20192;-89
2022/08/14 02:00:42;;;;;;;6.43;3.23;;;25.30;1.00;;;;;;5077537;28;20203;-89
2022/08/14 02:03:47;;;;;;;3.73;2.90;;;25.20;1.00;;;;;;5061019;28;20241;-89
2022/08/14 02:06:29;;;;;;;5.17;3.30;;;25.30;1.00;;;;;;5077327;28;20232;-89
2022/08/14 02:09:02;;;;;;;5.97;5.07;;;25.50;1.00;;;;;;5077796;28;20155;-89
2022/08/14 02:11:36;;;;;;;9.87;7.13;;;25.50;1.00;;;;;;5078348;28;20200;-89
2022/08/14 02:14:09;;;;;;;9.10;7.53;;;25.50;1.00;;;;;;5077751;28;20200;-88
2022/08/14 02:16:43;;;;;;;13.13;8.23;;;25.60;1.00;;;;;;5077942;28;20185;-89
2022/08/14 02:19:18;;;;;;;12.43;7.83;;;25.70;1.00;;;;;;5078505;28;20148;-88
2022/08/14 02:22:06;;;;;;;10.93;6.70;;;25.60;1.00;;;;;;5080157;28;20165;-89
2022/08/14 02:24:54;;;;;;;13.73;7.80;;;25.60;1.00;;;;;;5080818;28;20153;-88
2022/08/14 02:28:03;;;;;;;26.63;14.87;;;25.50;1.00;;;;;;5080317;28;20221;-88
2022/08/14 02:30:33;;;;;;;39.80;22.27;;;25.50;1.00;;;;;;5058166;28;20196;-89
2022/08/14 02:33:17;;;;;;;51.93;28.17;;;25.60;1.00;;;;;;5058751;28;20212;-89
2022/08/14 02:35:54;;;;;;;50.63;26.70;;;25.70;1.00;;;;;;5052163;28;20185;-88
2022/08/14 02:38:34;;;;;;;41.50;23.30;;;25.70;1.00;;;;;;5056628;28;20245;-87
2022/08/14 02:41:14;;;;;;;20.90;12.10;;;25.60;1.00;;;;;;5064446;28;20183;-88
2022/08/14 02:43:43;;;;;;;26.80;13.83;;;25.60;1.00;;;;;;5060299;28;20196;-89
2022/08/14 02:46:17;;;;;;;15.40;10.03;;;25.60;1.00;;;;;;5058642;28;20200;-89
2022/08/14 02:48:50;;;;;;;17.43;9.90;;;25.70;1.00;;;;;;5059314;28;20179;-89
2022/08/14 02:51:23;;;;;;;17.90;10.93;;;25.70;1.00;;;;;;5041188;28;20177;-89
2022/08/14 02:53:57;;;;;;;13.97;8.40;;;25.70;1.00;;;;;;5057177;28;20191;-89
2022/08/14 02:56:28;;;;;;;13.60;7.77;;;25.70;1.00;;;;;;5057170;28;20246;-89
2022/08/14 02:59:01;;;;;;;8.67;5.70;;;25.70;1.00;;;;;;5057098;28;20205;-89
2022/08/14 03:01:32;;;;;;;11.27;6.23;;;25.60;1.00;;;;;;5056613;28;20173;-89
2022/08/14 03:04:06;;;;;;;9.70;6.50;;;25.50;1.00;;;;;;5058044;28;20165;-89
2022/08/14 03:06:34;;;;;;;11.73;6.60;;;25.40;1.00;;;;;;5056683;28;20227;-89
2022/08/14 03:09:15;;;;;;;11.87;6.33;;;25.50;1.00;;;;;;5057585;28;20520;-89
2022/08/14 03:11:44;;;;;;;8.00;4.70;;;25.40;1.00;;;;;;5052327;28;20180;-90
2022/08/14 03:14:24;;;;;;;10.40;5.10;;;25.40;1.00;;;;;;5056489;28;20663;-89
2022/08/14 03:16:53;;;;;;;8.87;5.67;;;25.50;1.00;;;;;;5057259;28;20229;-89
2022/08/14 03:19:56;;;;;;;8.27;4.40;;;25.50;1.00;;;;;;5056059;28;20649;-90
2022/08/14 03:22:35;;;;;;;5.03;3.60;;;25.50;1.00;;;;;;5056217;28;20727;-89
2022/08/14 03:25:32;;;;;;;6.80;4.10;;;25.50;1.00;;;;;;5055630;28;20551;-89
2022/08/14 03:28:25;;;;;;;9.93;4.70;;;25.60;1.00;;;;;;5055185;28;20298;-89
2022/08/14 03:31:32;;;;;;;6.00;3.60;;;25.50;1.00;;;;;;5055010;28;20172;-90
2022/08/14 03:34:33;;;;;;;6.73;3.60;;;25.40;1.00;;;;;;5055814;28;20209;-90
2022/08/14 03:37:26;;;;;;;7.60;3.93;;;25.40;1.00;;;;;;5072068;28;20180;-89
2022/08/14 03:39:54;;;;;;;9.80;3.73;;;25.30;1.00;;;;;;5057395;28;20190;-89
2022/08/14 03:42:42;;;;;;;7.83;3.40;;;25.20;1.00;;;;;;5074809;28;20192;-89
2022/08/14 03:45:19;;;;;;;6.37;4.53;;;25.10;32.70;;;;;;5069595;28;20197;-89
2022/08/14 03:48:32;;;;;;;6.63;4.10;;;25.00;99.90;;;;;;5075657;28;20231;-89
2022/08/14 03:51:27;;;;;;;6.87;4.23;;;24.90;1.00;;;;;;5075249;28;20184;-89
2022/08/14 03:53:59;;;;;;;7.00;4.13;;;24.80;59.10;;;;;;5074738;28;20187;-89
2022/08/14 03:56:32;;;;;;;6.00;4.00;;;24.50;99.90;;;;;;5074926;28;20197;-88
2022/08/14 03:59:10;;;;;;;6.60;3.53;;;24.40;99.90;;;;;;5074417;28;20196;-89
2022/08/14 04:01:51;;;;;;;6.50;3.80;;;24.20;99.90;;;;;;5073393;28;20663;-89
2022/08/14 04:04:38;;;;;;;8.77;4.13;;;24.20;99.90;;;;;;5068722;28;20267;-90
2022/08/14 04:07:27;;;;;;;4.17;3.20;;;24.20;1.00;;;;;;5069784;28;20217;-89
2022/08/14 04:10:27;;;;;;;6.43;3.57;;;24.20;99.90;;;;;;5071828;28;20172;-89
2022/08/14 04:13:00;;;;;;;10.33;3.53;;;24.00;1.00;;;;;;5073769;28;20210;-89
2022/08/14 04:15:44;;;;;;;6.33;3.40;;;24.00;1.00;;;;;;5057462;28;20197;-89
2022/08/14 04:18:16;;;;;;;6.43;3.50;;;23.90;1.00;;;;;;5072015;28;20205;-89
2022/08/14 04:20:46;;;;;;;8.40;3.20;;;23.80;99.90;;;;;;5073748;28;20190;-88
2022/08/14 04:23:17;;;;;;;5.27;3.20;;;23.80;99.90;;;;;;5072267;28;20529;-89
2022/08/14 04:25:45;;;;;;;4.83;3.13;;;23.60;1.00;;;;;;5077690;28;20184;-88
2022/08/14 04:28:16;;;;;;;5.63;3.10;;;23.60;1.00;;;;;;5072277;28;20232;-89
2022/08/14 04:30:49;;;;;;;5.70;3.03;;;23.60;99.90;;;;;;5069897;28;20187;-89
2022/08/14 04:33:57;;;;;;;5.07;3.30;;;23.60;99.90;;;;;;5076314;28;20192;-88
2022/08/14 04:43:34;;;;;;;5.13;3.40;;;23.40;1.00;;;;;;5062206;28;20249;-87
2022/08/14 04:45:39;;;;;;;4.73;3.03;;;22.60;99.90;;;;;;5076715;28;20174;-90
2022/08/14 04:48:44;;;;;;;5.73;3.10;;;22.70;99.90;;;;;;5076386;28;20211;-89
2022/08/14 04:51:20;;;;;;;3.87;3.20;;;22.40;99.90;;;;;;5075915;28;20186;-89
2022/08/14 04:57:23;;;;;;;3.87;2.93;;;22.50;1.00;;;;;;5076600;28;20205;-89
2022/08/14 04:59:59;;;;;;;5.50;2.90;;;22.60;99.90;;;;;;5076613;28;20226;-89
2022/08/14 05:02:34;;;;;;;6.07;3.10;;;22.80;1.00;;;;;;5075504;28;20182;-88
2022/08/14 05:05:52;;;;;;;5.70;3.00;;;22.80;99.90;;;;;;5077208;28;20165;-88
2022/08/14 05:08:57;;;;;;;7.43;3.63;;;23.10;48.90;;;;;;5076807;28;20243;-89
2022/08/14 05:11:51;;;;;;;5.40;2.77;;;23.00;12.40;;;;;;5076840;28;20147;-89
2022/08/14 05:14:23;;;;;;;7.20;3.00;;;22.90;1.00;;;;;;5076323;28;20199;-89
2022/08/14 05:17:41;;;;;;;5.70;2.77;;;22.80;99.90;;;;;;5078169;28;20178;-88
2022/08/14 05:20:52;;;;;;;5.80;3.30;;;22.90;99.90;;;;;;5074288;28;20188;-88
2022/08/14 05:24:43;;;;;;;4.97;3.23;;;22.90;99.90;;;;;;5079977;28;20199;-88
2022/08/14 05:27:24;;;;;;;7.40;3.53;;;22.70;99.90;;;;;;5076269;28;20300;-89
2022/08/14 05:29:56;;;;;;;4.93;2.97;;;22.70;99.90;;;;;;5066907;28;20197;-89
2022/08/14 05:32:30;;;;;;;5.03;3.10;;;22.80;99.90;;;;;;5063443;28;20177;-89
2022/08/14 05:35:27;;;;;;;4.90;3.23;;;23.00;99.90;;;;;;5062016;28;20239;-89
2022/08/14 05:37:53;;;;;;;5.60;3.10;;;23.10;61.20;;;;;;5047399;28;20453;-89
2022/08/14 05:40:19;;;;;;;5.10;3.20;;;23.20;1.00;;;;;;5061506;28;20607;-90
2022/08/14 05:42:50;;;;;;;4.20;2.83;;;23.40;1.00;;;;;;5061943;28;20198;-89
2022/08/14 05:45:27;;;;;;;5.83;2.80;;;23.60;97.30;;;;;;5062968;28;20183;-89
2022/08/14 05:48:03;;;;;;;6.20;3.00;;;24.00;1.00;;;;;;5063894;28;20257;-90
2022/08/14 05:53:55;;;;;;;9.50;2.43;;;24.40;99.90;;;;;;5062359;28;20233;-89
2022/08/14 05:56:25;;;;;;;5.87;2.83;;;24.50;99.90;;;;;;5063720;28;20188;-89
2022/08/14 05:58:58;;;;;;;3.27;2.30;;;24.70;99.90;;;;;;5061630;28;20193;-88
2022/08/14 06:01:48;;;;;;;5.47;2.23;;;24.80;69.20;;;;;;5061447;28;20169;-89
2022/08/14 06:04:21;;;;;;;5.00;2.47;;;25.20;9.90;;;;;;5062701;28;20172;-88
2022/08/14 06:06:48;;;;;;;5.03;2.93;;;25.20;1.00;;;;;;5064013;28;20209;-90
2022/08/14 06:09:19;;;;;;;3.60;2.20;;;25.00;1.00;;;;;;5063894;28;20180;-90
2022/08/14 06:11:48;;;;;;;3.33;2.33;;;25.00;1.00;;;;;;5061283;28;20172;-89
2022/08/14 06:14:14;;;;;;;3.37;2.30;;;25.30;1.00;;;;;;5061306;28;20189;-89
2022/08/14 06:16:53;;;;;;;5.13;2.77;;;25.30;1.00;;;;;;5059651;28;20445;-89
2022/08/14 06:19:20;;;;;;;3.80;2.70;;;25.30;1.00;;;;;;5042548;28;20172;-89
2022/08/14 06:21:50;;;;;;;5.70;2.57;;;25.30;1.00;;;;;;5059738;28;20168;-88
2022/08/14 06:24:19;;;;;;;4.40;2.37;;;25.50;1.00;;;;;;5060347;28;20206;-88
2022/08/14 06:26:51;;;;;;;6.73;2.40;;;25.60;1.00;;;;;;5060342;28;20265;-88
2022/08/14 06:29:20;;;;;;;3.50;2.60;;;25.60;1.00;;;;;;5060941;28;20195;-89
2022/08/14 06:31:58;;;;;;;3.13;2.47;;;25.50;1.00;;;;;;5060864;28;20234;-88
2022/08/14 06:34:24;;;;;;;6.27;2.83;;;25.70;1.00;;;;;;5059160;28;20180;-89
2022/08/14 06:36:56;;;;;;;5.63;2.60;;;25.80;1.00;;;;;;5066201;28;20184;-88
2022/08/14 06:39:24;;;;;;;6.23;2.47;;;25.80;1.00;;;;;;5068079;28;20640;-89
2022/08/14 06:41:53;;;;;;;4.57;2.70;;;25.90;1.00;;;;;;5060277;28;20176;-89
2022/08/14 06:44:40;;;;;;;5.77;3.50;;;26.00;1.00;;;;;;5057938;28;20180;-89
2022/08/14 06:47:46;;;;;;;4.37;2.93;;;26.00;1.00;;;;;;5059696;28;20209;-89
2022/08/14 06:50:26;;;;;;;3.30;3.00;;;26.00;1.00;;;;;;5057815;28;20182;-89
2022/08/14 06:53:02;;;;;;;7.20;3.33;;;26.00;1.00;;;;;;5061225;28;20192;-88
2022/08/14 06:55:31;;;;;;;4.30;3.23;;;26.20;1.00;;;;;;5064452;28;20181;-88
2022/08/14 06:58:04;;;;;;;4.83;3.40;;;26.50;1.00;;;;;;5064496;28;20203;-89
2022/08/14 07:00:30;;;;;;;6.13;3.73;;;26.60;1.00;;;;;;5064440;28;20178;-88
2022/08/14 07:05:50;;;;;;;4.30;3.83;;;27.00;1.00;;;;;;5067202;28;20160;-88
2022/08/14 07:08:33;;;;;;;5.87;4.10;;;27.30;1.00;;;;;;5065129;28;20200;-88
2022/08/14 07:11:05;;;;;;;6.20;3.80;;;27.50;1.00;;;;;;5065068;28;20180;-89
2022/08/14 07:13:35;;;;;;;6.20;3.90;;;27.60;1.00;;;;;;5064438;28;20200;-90
2022/08/14 07:16:05;;;;;;;6.17;4.00;;;27.80;1.00;;;;;;5060438;28;20272;-89
2022/08/14 07:18:34;;;;;;;6.55;3.95;;;27.90;1.00;;;;;;5063456;28;20172;-89
2022/08/14 07:21:17;;;;;;;5.97;3.53;;;28.10;1.00;;;;;;5054702;28;20173;-89
2022/08/14 07:23:50;;;;;;;6.90;3.40;;;28.40;1.00;;;;;;5069996;28;20179;-89
2022/08/14 07:26:21;;;;;;;4.43;2.97;;;28.50;1.00;;;;;;5070786;28;20201;-90
2022/08/14 07:28:47;;;;;;;3.47;2.30;;;28.50;1.00;;;;;;5071350;28;20173;-89
2022/08/14 07:31:17;;;;;;;3.20;2.83;;;28.60;1.00;;;;;;5072148;28;20259;-89
2022/08/14 07:33:56;;;;;;;4.88;2.53;;;28.60;1.00;;;;;;5079101;28;20141;-88
2022/08/14 07:36:39;;;;;;;5.20;3.35;;;28.50;1.00;;;;;;5079722;28;20203;-88
2022/08/14 07:39:34;;;;;;;3.80;2.50;;;28.40;1.00;;;;;;5080126;28;20160;-89
2022/08/14 07:42:47;;;;;;;5.97;2.90;;;28.50;1.00;;;;;;5061415;28;20193;-89
2022/08/14 07:45:35;;;;;;;3.78;3.00;;;28.70;1.00;;;;;;5076045;28;20219;-90
2022/08/14 07:48:23;;;;;;;5.00;2.60;;;29.00;1.00;;;;;;5077546;28;20246;-89
2022/08/14 07:54:15;;;;;;;4.50;2.83;;;29.20;1.00;;;;;;5073039;28;20546;-90
2022/08/14 07:56:41;;;;;;;5.35;3.08;;;29.40;1.00;;;;;;5061389;28;20185;-89
2022/08/14 07:59:08;;;;;;;2.88;2.58;;;29.40;1.00;;;;;;5063561;28;20636;-90
2022/08/14 08:01:35;;;;;;;3.72;2.40;;;29.50;99.90;;;;;;5073220;28;20163;-89
2022/08/14 08:04:25;;;;;;;5.72;3.85;;;29.60;99.90;;;;;;5075080;28;20672;-89
2022/08/14 08:07:36;;;;;;;3.92;2.40;;;29.90;99.90;;;;;;5077657;28;20235;-89
2022/08/14 08:10:30;;;;;;;7.20;3.17;;;30.10;99.90;;;;;;5074887;28;20141;-89
2022/08/14 08:13:06;;;;;;;3.47;2.15;;;30.10;99.90;;;;;;5075348;28;20179;-90
2022/08/14 08:15:56;;;;;;;3.28;2.38;;;30.00;99.90;;;;;;5075953;28;20199;-90
2022/08/14 08:18:25;;;;;;;2.90;2.08;;;29.70;99.90;;;;;;5076312;28;20162;-89
2022/08/14 08:28:30;;;;;;;5.90;2.15;;;29.20;99.90;;;;;;5056581;28;20216;-89
2022/08/14 08:34:57;;;;;;;5.25;2.03;;;29.50;99.90;;;;;;5058021;28;20180;-90
2022/08/14 08:37:55;;;;;;;3.13;2.05;;;29.50;99.90;;;;;;5018138;28;20185;-89
2022/08/14 08:40:45;;;;;;;3.85;1.88;;;29.90;99.90;;;;;;5018547;28;20173;-89
2022/08/14 08:43:46;;;;;;;2.10;1.90;;;30.10;99.90;;;;;;5057323;28;20169;-92
2022/08/14 08:47:01;;;;;;;;;;;;;;;;;;;;;
2022/08/14 08:49:51;;;;;;;6.70;2.00;;;30.50;99.90;;;;;;5044023;28;20193;-91
2022/08/14 08:52:17;;;;;;;5.68;2.20;;;30.60;99.90;;;;;;5047133;28;20188;-90
2022/08/14 08:55:02;;;;;;;3.20;1.60;;;30.70;99.90;;;;;;5054899;28;20708;-90
2022/08/14 08:57:35;;;;;;;2.63;1.65;;;30.60;99.90;;;;;;5055726;28;20193;-90
2022/08/14 09:00:01;;;;;;;2.92;1.70;;;30.60;99.90;;;;;;5058549;28;20548;-90
2022/08/14 09:02:29;;;;;;;4.97;2.05;;;30.80;99.90;;;;;;5064516;28;20180;-90
2022/08/14 09:05:05;;;;;;;3.42;1.98;;;31.00;99.90;;;;;;5066975;28;20226;-90
2022/08/14 09:07:36;;;;;;;2.70;1.80;;;31.00;99.90;;;;;;5077703;28;20271;-89
2022/08/14 09:10:30;;;;;;;2.58;1.52;;;31.00;99.90;;;;;;5077308;28;20216;-90
2022/08/14 09:13:37;;;;;;;4.30;1.92;;;31.10;99.90;;;;;;5078105;28;20228;-90
2022/08/14 09:16:29;;;;;;;4.05;1.80;;;31.20;99.90;;;;;;5077694;28;20263;-88
2022/08/14 09:19:08;;;;;;;2.95;2.20;;;31.00;99.90;;;;;;5075482;28;20207;-90
2022/08/14 09:21:47;;;;;;;4.38;2.22;;;31.20;99.90;;;;;;5074887;28;20264;-90
2022/08/14 09:24:22;;;;;;;4.15;2.03;;;31.30;99.90;;;;;;5074089;28;20173;-90
2022/08/14 09:27:09;;;;;;;3.28;2.55;;;31.50;99.90;;;;;;5071817;28;20186;-89
2022/08/14 09:30:09;;;;;;;6.00;2.70;;;31.60;99.90;;;;;;5062934;28;20356;-90
2022/08/14 09:33:20;;;;;;;7.43;2.30;;;31.70;99.90;;;;;;5068198;28;20191;-89
2022/08/14 09:36:01;;;;;;;4.22;1.80;;;31.70;99.90;;;;;;5064859;28;20181;-89
2022/08/14 09:42:38;;;;;;;3.28;1.90;;;31.50;99.90;;;;;;5071410;28;20168;-90
2022/08/14 09:45:33;;;;;;;4.55;2.53;;;31.40;99.90;;;;;;5065474;28;20175;-89
2022/08/14 09:48:01;;;;;;;3.72;1.60;;;31.00;99.90;;;;;;5061502;28;20211;-88
2022/08/14 09:50:53;;;;;;;2.38;1.70;;;31.00;99.90;;;;;;5062957;28;20656;-90
2022/08/14 09:53:42;;;;;;;1.98;1.30;;;30.80;99.90;;;;;;5063160;28;20177;-89
2022/08/14 09:56:17;;;;;;;3.53;1.90;;;30.70;99.90;;;;;;5063394;28;20162;-90
2022/08/14 09:59:13;;;;;;;3.25;1.73;;;30.90;99.90;;;;;;5063311;28;20703;-90
2022/08/14 10:01:44;;;;;;;3.97;1.95;;;31.20;99.90;;;;;;5067824;28;20192;-90
2022/08/14 10:04:32;;;;;;;3.63;1.90;;;31.50;99.90;;;;;;5067994;28;20169;-91
2022/08/14 10:07:00;;;;;;;5.63;2.15;;;31.60;99.90;;;;;;5049259;28;20212;-90
2022/08/14 10:09:29;;;;;;;5.13;2.10;;;31.60;99.90;;;;;;5061510;28;20172;-90
2022/08/14 10:11:59;;;;;;;3.13;1.98;;;31.80;99.90;;;;;;5066251;28;20207;-90
2022/08/14 10:14:31;;;;;;;3.10;2.08;;;31.70;99.90;;;;;;5064863;28;20208;-92
2022/08/14 10:16:57;;;;;;;3.40;2.00;;;31.60;99.90;;;;;;5058548;28;20179;-90
2022/08/14 10:19:34;;;;;;;2.67;1.95;;;31.80;99.90;;;;;;5060467;28;20149;-90
2022/08/14 10:22:09;;;;;;;7.18;2.00;;;32.00;99.90;;;;;;5061300;28;20169;-89
2022/08/14 10:24:46;;;;;;;4.13;2.13;;;32.00;99.90;;;;;;5058949;28;20200;-91
2022/08/14 10:27:18;;;;;;;3.22;2.78;;;31.90;99.90;;;;;;5058225;28;20672;-89
2022/08/14 10:29:49;;;;;;;6.43;2.00;;;32.00;99.90;;;;;;5058514;28;20175;-90
2022/08/14 10:32:27;;;;;;;7.30;2.38;;;32.00;99.90;;;;;;5062047;28;20169;-89
2022/08/14 10:35:06;;;;;;;5.20;2.03;;;32.30;99.90;;;;;;5058602;28;20211;-90
2022/08/14 10:37:48;;;;;;;6.03;1.73;;;32.10;99.90;;;;;;5075238;28;20164;-89
2022/08/14 10:40:31;;;;;;;5.10;1.85;;;31.90;99.90;;;;;;5068721;28;20180;-90
2022/08/14 10:42:58;;;;;;;2.47;1.90;;;31.70;99.90;;;;;;5058217;28;20211;-90
2022/08/14 10:46:19;;;;;;;5.13;1.95;;;32.00;99.90;;;;;;5043101;28;20188;-91
2022/08/14 10:49:03;;;;;;;4.40;2.45;;;32.00;99.90;;;;;;5057620;28;20177;-90
2022/08/14 10:51:41;;;;;;;2.95;1.88;;;32.10;99.90;;;;;;5044905;28;20183;-94
2022/08/14 10:54:09;;;;;;;2.38;1.92;;;31.60;99.90;;;;;;5062221;28;20199;-90
2022/08/14 10:56:36;;;;;;;3.83;1.70;;;31.70;99.90;;;;;;5072169;28;20172;-89
2022/08/14 10:59:03;;;;;;;7.18;2.00;;;32.00;99.90;;;;;;5079748;28;20169;-91
2022/08/14 11:01:34;;;;;;;6.65;3.13;;;32.20;99.90;;;;;;5077046;28;20180;-93
2022/08/14 11:04:03;;;;;;;15.15;7.63;;;32.40;99.90;;;;;;5057925;28;20173;-96
2022/08/14 11:06:30;;;;;;;2.58;1.90;;;32.40;99.90;;;;;;5072652;28;20205;-96
2022/08/14 11:09:10;;;;;;;3.50;2.20;;;32.50;99.90;;;;;;5071745;28;20168;-96
2022/08/14 11:11:42;;;;;;;4.20;3.25;;;32.50;99.90;;;;;;5073098;28;20187;-96
2022/08/14 11:14:08;;;;;;;17.27;10.73;;;31.90;99.90;;;;;;5074090;28;20218;-92
2022/08/14 11:16:39;;;;;;;2.53;1.75;;;31.70;99.90;;;;;;5069502;28;20173;-91
2022/08/14 11:19:12;;;;;;;2.53;1.95;;;31.70;99.90;;;;;;5059738;28;20186;-91
2022/08/14 11:21:59;;;;;;;3.10;1.80;;;32.20;99.90;;;;;;5059710;28;20265;-91
2022/08/14 11:24:40;;;;;;;3.13;1.70;;;32.50;99.90;;;;;;5066429;28;20538;-90
2022/08/14 11:27:08;;;;;;;2.40;1.50;;;32.80;99.90;;;;;;5046732;28;20225;-92
2022/08/14 11:29:39;;;;;;;4.85;1.90;;;32.80;99.90;;;;;;5060123;28;20173;-90
2022/08/14 11:32:11;;;;;;;2.00;1.67;;;32.30;99.90;;;;;;5065674;28;20187;-90
2022/08/14 11:34:38;;;;;;;5.10;1.70;;;32.30;99.90;;;;;;5061116;28;20256;-91
2022/08/14 11:37:09;;;;;;;3.45;2.00;;;32.50;99.90;;;;;;5058277;28;20188;-90
2022/08/14 11:39:37;;;;;;;2.60;1.73;;;32.70;99.90;;;;;;5057567;28;20177;-90
2022/08/14 11:45:33;;;;;;;3.80;1.90;;;32.80;99.90;;;;;;5062053;28;20168;-91
2022/08/14 11:48:28;;;;;;;4.95;1.70;;;32.90;99.90;;;;;;5062828;28;20213;-90
2022/08/14 11:50:59;;;;;;;3.92;2.10;;;33.20;99.90;;;;;;5054622;28;20230;-90
2022/08/14 11:53:39;;;;;;;3.28;2.28;;;33.50;99.90;;;;;;5056318;28;20172;-91
2022/08/14 11:56:15;;;;;;;2.75;1.73;;;33.50;99.90;;;;;;5056150;28;20173;-90
2022/08/14 11:58:52;;;;;;;3.03;2.30;;;33.30;99.90;;;;;;5043937;28;20711;-89
2022/08/14 12:01:35;;;;;;;3.95;1.70;;;33.10;99.90;;;;;;5066848;28;20244;-89
2022/08/14 12:04:28;;;;;;;2.38;1.90;;;33.30;99.90;;;;;;5061356;28;20173;-90
2022/08/14 12:07:03;;;;;;;3.35;1.70;;;33.60;99.90;;;;;;5065996;28;20200;-89
2022/08/14 12:09:35;;;;;;;5.07;1.83;;;33.40;99.90;;;;;;5066174;28;20165;-89
2022/08/14 12:12:36;;;;;;;3.63;2.13;;;33.20;99.90;;;;;;5070627;28;20184;-90
2022/08/14 12:15:10;;;;;;;4.85;2.55;;;33.40;99.90;;;;;;4980291;28;20742;-90
2022/08/14 12:17:47;;;;;;;4.03;2.40;;;33.30;99.90;;;;;;4995275;28;20194;-89
2022/08/14 12:20:14;;;;;;;4.38;2.25;;;33.40;99.90;;;;;;4979364;28;20266;-90
2022/08/14 12:22:43;;;;;;;8.40;2.75;;;33.40;99.90;;;;;;4994147;28;20175;-90
2022/08/14 12:25:22;;;;;;;2.80;2.10;;;33.40;99.90;;;;;;5027992;28;20661;-90
2022/08/14 12:28:14;;;;;;;2.88;1.80;;;33.30;99.90;;;;;;5046627;28;20212;-89
2022/08/14 12:30:44;;;;;;;3.78;1.40;;;32.80;99.90;;;;;;5062486;28;20203;-90
2022/08/14 12:33:29;;;;;;;2.42;1.52;;;32.80;99.90;;;;;;5055838;28;20169;-90
2022/08/14 12:35:59;;;;;;;3.78;1.70;;;33.00;99.90;;;;;;5054255;28;20176;-90
2022/08/14 12:38:40;;;;;;;3.72;1.70;;;33.30;99.90;;;;;;5055456;28;20175;-89
2022/08/14 12:41:21;;;;;;;2.63;1.30;;;33.40;99.90;;;;;;5062709;28;20191;-90
2022/08/14 12:44:14;;;;;;;2.10;1.50;;;33.30;99.90;;;;;;5068891;28;20173;-90
2022/08/14 12:47:29;;;;;;;3.47;1.70;;;33.40;99.90;;;;;;5066058;28;20700;-90
2022/08/14 12:49:57;;;;;;;1.80;1.20;;;33.30;99.90;;;;;;5068573;28;20173;-90
2022/08/14 12:53:08;;;;;;;1.90;1.33;;;33.30;99.90;;;;;;5069698;28;20203;-90
2022/08/14 12:56:10;;;;;;;2.97;1.95;;;33.40;99.90;;;;;;5076400;28;20236;-90
2022/08/14 12:59:14;;;;;;;2.78;1.58;;;33.60;99.90;;;;;;5076040;28;20577;-91
2022/08/14 13:02:38;;;;;;;5.03;1.80;;;33.90;99.90;;;;;;5071336;28;20173;-91
2022/08/14 13:05:24;;;;;;;2.30;1.50;;;34.10;99.90;;;;;;4994493;28;20190;-93
2022/08/14 13:08:10;;;;;;;2.38;1.65;;;34.40;99.90;;;;;;4995997;28;20254;-89
2022/08/14 13:11:17;;;;;;;2.72;2.10;;;34.40;99.90;;;;;;4994790;28;20186;-92
2022/08/14 13:13:58;;;;;;;3.33;1.73;;;34.30;99.90;;;;;;5049210;28;20177;-89
2022/08/14 13:16:32;;;;;;;3.40;1.80;;;34.20;99.90;;;;;;5067178;28;20148;-91
2022/08/14 13:19:44;;;;;;;;;;;;;;;;;;;;;
2022/08/14 13:22:25;;;;;;;2.17;1.50;;;34.40;99.90;;;;;;5059384;28;20311;-88
2022/08/14 13:25:10;;;;;;;2.00;1.80;;;34.40;99.90;;;;;;5068189;28;20154;-89
2022/08/14 13:27:46;;;;;;;4.22;2.40;;;34.40;99.90;;;;;;5071498;28;20235;-93
2022/08/14 13:30:40;;;;;;;10.32;3.40;;;34.40;99.90;;;;;;5073093;28;20207;-89
2022/08/14 13:33:07;;;;;;;2.75;2.30;;;34.20;99.90;;;;;;5074057;28;20176;-90
2022/08/14 13:35:35;;;;;;;3.80;2.00;;;34.00;99.90;;;;;;5071867;28;20161;-91
2022/08/14 13:38:09;;;;;;;4.28;1.70;;;34.10;99.90;;;;;;5075864;28;20173;-90
2022/08/14 13:40:54;;;;;;;2.60;1.67;;;34.20;99.90;;;;;;5077024;28;20164;-89
2022/08/14 13:43:23;;;;;;;5.32;1.80;;;34.20;99.90;;;;;;5075304;28;20221;-89
2022/08/14 13:45:51;;;;;;;2.25;1.60;;;34.50;99.90;;;;;;5079286;28;20176;-89
2022/08/14 13:48:39;;;;;;;3.95;2.03;;;34.40;99.90;;;;;;5072739;28;20252;-89
2022/08/14 13:51:10;;;;;;;2.40;1.50;;;34.40;99.90;;;;;;5077000;28;20180;-87
2022/08/14 13:54:10;;;;;;;2.90;2.30;;;34.40;99.90;;;;;;5077374;28;20249;-89
2022/08/14 13:56:44;;;;;;;3.40;1.73;;;34.40;99.90;;;;;;5077140;28;20173;-89
2022/08/14 13:59:15;;;;;;;4.20;1.83;;;34.30;99.90;;;;;;5077838;28;20176;-89
2022/08/14 14:01:45;;;;;;;2.80;1.70;;;33.90;99.90;;;;;;5075874;28;20153;-89
2022/08/14 14:04:20;;;;;;;3.40;2.00;;;33.70;99.90;;;;;;5076076;28;20183;-90
2022/08/14 14:06:49;;;;;;;3.75;1.73;;;33.90;99.90;;;;;;5071771;28;20212;-90
2022/08/14 14:09:30;;;;;;;7.13;1.85;;;34.10;99.90;;;;;;5075401;28;20157;-91
2022/08/14 14:12:10;;;;;;;3.92;1.80;;;34.10;99.90;;;;;;5067751;28;20194;-91
2022/08/14 14:14:38;;;;;;;3.78;1.80;;;34.20;99.90;;;;;;5061565;28;20171;-90
2022/08/14 14:17:05;;;;;;;2.45;1.50;;;34.30;99.90;;;;;;5060898;28;20165;-89
2022/08/14 14:19:34;;;;;;;2.20;1.60;;;34.50;99.90;;;;;;5057410;28;20220;-91
2022/08/14 14:22:01;;;;;;;3.72;1.67;;;34.70;99.90;;;;;;5059971;28;20200;-90
2022/08/14 14:24:32;;;;;;;2.42;1.58;;;35.00;99.90;;;;;;5060973;28;20644;-89
2022/08/14 14:27:03;;;;;;;2.67;1.63;;;35.20;99.90;;;;;;5061831;28;20204;-88
2022/08/14 14:29:34;;;;;;;2.53;1.58;;;35.20;99.90;;;;;;5060092;28;20173;-91
2022/08/14 14:32:05;;;;;;;2.97;1.63;;;35.00;99.90;;;;;;5061213;28;20165;-89
2022/08/14 14:34:41;;;;;;;5.43;1.85;;;34.20;99.90;;;;;;5062159;28;20252;-89
2022/08/14 14:37:31;;;;;;;1.73;1.50;;;34.00;99.90;;;;;;5061545;28;20180;-90
2022/08/14 14:40:07;;;;;;;3.97;1.48;;;33.90;99.90;;;;;;5063749;28;20667;-89
2022/08/14 14:42:46;;;;;;;5.40;1.90;;;34.10;99.90;;;;;;5067450;28;20188;-91